Midway, Pennsylvania
Current Conditions -  °F | °C
As of 4:51 PM on Thursday 23 Oct 2014 (Local Time) from KPIT Reporting Station
Few Clouds Few Clouds  
Wind Chill: 60°   Ceiling: Unl
Heat Index: 60°   Visibility: 10mi
Dew Point: 42°   Wind: 15mph
Humidity: 51%   Direction: 330°NNW
Pressure: 30.06"   Gusts: NA
Location:  40.37°N, 80.3°W
Report Text: KPIT 232051Z 33013KT 10SM FEW042 16/06 A3006 RMK AO2 SLP186 T01560056 56010
Loading
Personal Weather Stations






























Interactive Weather Map
Tropical Storm Tracking
New forecast layout! Learn more

10-Day Weather Forecast

Advertisements
Track Severe Weather on mobile